Data for 06/07/2005

Time Sea-Level Adjusted Pressure Absolute Pressure Temperature Relative Humidity Dew Point   
(mb) (inHg) (mb) (inHg) (C) (F) (%) (C) (F)
00:05 1012 29.88 842 24.86 5.8 42.4 91 4.5 40.1
00:10 1012 29.88 842 24.86 5.8 42.5 91 4.5 40.2
00:15 1012 29.88 842 24.86 5.9 42.6 91 4.5 40.2
00:20 1012 29.88 842 24.86 5.9 42.7 91 4.6 40.3
00:25 1012 29.88 842 24.86 6 42.8 90 4.4 39.9
00:30 1012 29.88 842 24.86 6 42.8 90 4.4 40
00:35 1012 29.88 842 24.86 6 42.7 89 4.3 39.7
00:40 1012 29.88 842 24.86 5.9 42.7 90 4.4 39.8
00:45 1012 29.88 841 24.83 6 42.7 89 4.3 39.7
00:50 1012 29.88 841 24.83 6 42.8 88 4.2 39.5
00:55 1012 29.88 841 24.83 6 42.8 88 4.2 39.6
01:00 1012 29.88 841 24.83 6.1 43 86 3.9 39
01:05 1012 29.88 841 24.83 6.2 43.2 87 4.2 39.5
01:10 1012 29.88 841 24.83 6.2 43.2 88 4.4 40
01:15 1012 29.88 841 24.83 6.1 42.9 89 4.5 40
01:20 1012 29.88 841 24.83 5.9 42.7 92 4.8 40.6
01:25 1012 29.88 841 24.83 5.8 42.5 94 5 41
01:30 1012 29.88 841 24.83 5.7 42.2 93 4.6 40.3
01:35 1012 29.88 841 24.83 5.8 42.5 92 4.6 40.2
01:40 1012 29.88 841 24.83 5.9 42.6 91 4.5 40.2
01:45 1012 29.88 841 24.83 6 42.8 88 4.2 39.6
01:50 1012 29.88 841 24.83 5.9 42.6 86 3.8 38.8
01:55 1012 29.88 841 24.83 5.9 42.6 86 3.8 38.8
02:00 1012 29.88 841 24.83 5.8 42.4 86 3.6 38.5
02:05 1012 29.88 841 24.83 5.7 42.3 86 3.6 38.5
02:10 1012 29.88 841 24.83 5.8 42.4 84 3.4 38.1
02:15 1011 29.85 841 24.83 6 42.7 84 3.5 38.2
02:20 1011 29.85 840 24.81 5.9 42.7 85 3.6 38.4
02:25 1011 29.85 840 24.81 5.8 42.4 85 3.4 38.2
02:30 1011 29.85 840 24.81 5.8 42.4 87 3.7 38.7
02:35 1011 29.85 840 24.81 5.6 42 88 3.8 38.8
02:40 1011 29.85 840 24.81 5.5 41.9 88 3.7 38.6
02:45 1011 29.85 840 24.81 5.5 41.9 86 3.3 38
02:50 1011 29.85 840 24.81 5.5 41.9 86 3.4 38.2
02:55 1011 29.85 840 24.81 5.2 41.4 87 3.3 37.9
03:00 1010 29.83 840 24.81 5.1 41.2 88 3.2 37.8
03:05 1010 29.83 839 24.78 5 41 90 3.5 38.3
03:10 1010 29.83 839 24.78 4.7 40.5 91 3.4 38.1
03:15 1010 29.83 839 24.78 4.6 40.2 90 3.1 37.6
03:20 1010 29.83 839 24.78 4.6 40.3 90 3.1 37.6
03:25 1010 29.83 839 24.78 4.5 40 90 3 37.4
03:30 1010 29.83 839 24.78 4.4 39.9 90 2.9 37.2
03:35 1010 29.83 839 24.78 4.4 39.8 90 2.9 37.2
03:40 1009 29.8 838 24.75 4.2 39.5 91 2.8 37
03:45 1009 29.8 838 24.75 4.1 39.3 91 2.7 36.8
03:50 1009 29.8 838 24.75 3.9 39 92 2.7 36.8
03:55 1009 29.8 838 24.75 3.8 38.8 93 2.7 36.8
04:00 1009 29.8 838 24.75 3.8 38.9 90 2.4 36.3
04:05 1009 29.8 838 24.75 4 39.2 91 2.6 36.7
04:10 1009 29.8 838 24.75 3.9 39 91 2.6 36.7
04:15 1009 29.8 838 24.75 3.6 38.5 91 2.3 36.2
04:20 1009 29.8 838 24.75 3.4 38.2 93 2.4 36.4
04:25 1009 29.8 839 24.78 3.4 38.2 92 2.2 36
04:30 1009 29.8 838 24.75 3.3 37.9 93 2.3 36.1
04:35 1009 29.8 838 24.75 3.2 37.7 92 2 35.6
04:40 1009 29.8 838 24.75 3.1 37.5 92 1.9 35.5
04:45 1009 29.8 838 24.75 3.1 37.6 92 1.9 35.4
04:50 1009 29.8 838 24.75 3.1 37.6 92 1.9 35.4
04:55 1009 29.8 839 24.78 3.1 37.6 92 2 35.5
05:00 1010 29.83 839 24.78 2.9 37.3 92 1.8 35.3
05:05 1010 29.83 839 24.78 2.6 36.7 94 1.7 35.1
05:10 1010 29.83 839 24.78 2.3 36.2 95 1.6 34.9
05:15 1010 29.83 839 24.78 2.2 35.9 95 1.5 34.7
05:20 1010 29.83 839 24.78 2.4 36.2 94 1.5 34.7
05:25 1010 29.83 839 24.78 2.4 36.4 94 1.6 35
05:30 1010 29.83 839 24.78 2.4 36.3 94 1.6 34.8
05:35 1010 29.83 839 24.78 2.6 36.6 92 1.4 34.4
05:40 1010 29.83 839 24.78 2.8 37 91 1.4 34.6
05:45 1010 29.83 839 24.78 2.8 37 92 1.6 34.8
05:50 1010 29.83 839 24.78 2.7 36.9 92 1.5 34.6
05:55 1010 29.83 839 24.78 2.9 37.1 91 1.5 34.8
06:00 1010 29.83 839 24.78 3.2 37.8 90 1.7 35
06:05 1010 29.83 839 24.78 3.5 38.4 88 1.7 35.1
06:10 1010 29.83 839 24.78 3.9 39 85 1.7 35
06:15 1010 29.83 839 24.78 4.1 39.5 84 1.8 35.2
06:20 1010 29.83 839 24.78 4.4 39.8 84 1.8 35.3
06:25 1010 29.83 839 24.78 4.3 39.8 87 2.4 36.3
06:30 1010 29.83 839 24.78 3.8 38.9 90 2.3 36.1
06:35 1010 29.83 839 24.78 3.9 39 89 2.2 35.9
06:40 1010 29.83 839 24.78 3.9 38.9 89 2.2 36
06:45 1010 29.83 839 24.78 4.1 39.3 87 2.1 35.9
06:50 1010 29.83 839 24.78 4.4 39.9 87 2.4 36.2
06:55 1010 29.83 839 24.78 4.6 40.2 86 2.4 36.3
07:00 1010 29.83 839 24.78 4.9 40.9 82 2.1 35.8
07:05 1010 29.83 839 24.78 5.3 41.6 84 2.8 37
07:10 1010 29.83 840 24.81 6 42.7 80 2.8 37
07:15 1010 29.83 840 24.81 6.5 43.7 78 3 37.3
07:20 1010 29.83 840 24.81 6.9 44.4 76 2.9 37.3
07:25 1010 29.83 840 24.81 6.9 44.4 76 2.9 37.3
07:30 1010 29.83 840 24.81 6.7 44.1 78 3.1 37.6
07:35 1010 29.83 840 24.81 6.7 44.1 79 3.3 37.9
07:40 1010 29.83 840 24.81 6.8 44.3 80 3.6 38.5
07:45 1010 29.83 840 24.81 6.9 44.5 77 3.2 37.7
07:50 1010 29.83 840 24.81 7.5 45.4 76 3.5 38.3
07:55 1010 29.83 840 24.81 8.1 46.5 72 3.3 38
08:00 1010 29.83 840 24.81 8.5 47.3 72 3.7 38.7
08:05 1011 29.85 840 24.81 8.9 48 71 3.8 38.9
08:10 1011 29.85 840 24.81 8.7 47.6 72 3.8 38.9
08:15 1011 29.85 840 24.81 8.1 46.6 75 3.9 39
08:20 1011 29.85 840 24.81 8.1 46.5 79 4.6 40.2
08:25 1011 29.85 840 24.81 7.7 45.8 75 3.5 38.3
08:30 1011 29.85 840 24.81 7.4 45.3 76 3.5 38.3
08:35 1011 29.85 840 24.81 7.6 45.6 74 3.3 37.9
08:40 1011 29.85 840 24.81 8.6 47.4 70 3.5 38.3
08:45 1011 29.85 840 24.81 9.1 48.4 69 3.8 38.9
08:50 1011 29.85 840 24.81 9.2 48.6 68 3.6 38.4
08:55 1011 29.85 840 24.81 8.4 47.2 72 3.7 38.6
09:00 1011 29.85 840 24.81 8.9 48 70 3.7 38.6
09:05 1011 29.85 840 24.81 8.9 48 70 3.8 38.8
09:10 1011 29.85 840 24.81 8.4 47.2 72 3.7 38.7
09:15 1011 29.85 840 24.81 8.3 46.9 73 3.7 38.7
09:20 1011 29.85 840 24.81 8.3 46.9 73 3.8 38.9
09:25 1011 29.85 840 24.81 8 46.4 76 4 39.2
09:30 1011 29.85 840 24.81 8.2 46.8 72 3.6 38.5
09:35 1011 29.85 840 24.81 8.6 47.4 72 3.8 38.8
09:40 1011 29.85 840 24.81 8.7 47.6 71 3.7 38.6
09:45 1011 29.85 840 24.81 8.8 47.8 71 3.9 39
09:50 1011 29.85 840 24.81 9 48.2 71 3.9 39.1
09:55 1011 29.85 840 24.81 9 48.3 72 4.2 39.5
10:00 1011 29.85 840 24.81 7.9 46.3 78 4.3 39.8
10:05 1011 29.85 840 24.81 7.5 45.5 78 3.9 38.9
10:10 1011 29.85 840 24.81 7.2 45 78 3.7 38.6
10:15 1011 29.85 840 24.81 7 44.7 79 3.7 38.6
10:20 1011 29.85 840 24.81 7.4 45.4 78 3.9 39.1
10:25 1011 29.85 840 24.81 7.9 46.1 77 4.1 39.4
10:30 1011 29.85 840 24.81 8.2 46.8 71 3.2 37.8
10:35 1011 29.85 840 24.81 8 46.4 73 3.6 38.4
10:40 1011 29.85 840 24.81 8.1 46.6 72 3.4 38.1
10:45 1011 29.85 840 24.81 8.4 47.1 71 3.5 38.3
10:50 1011 29.85 840 24.81 8.8 47.9 72 4 39.3
10:55 1011 29.85 840 24.81 8.3 46.9 74 4 39.2
11:00 1011 29.85 840 24.81 8 46.5 76 4.1 39.4
11:05 1011 29.85 840 24.81 7.9 46.2 74 3.7 38.6
11:10 1011 29.85 840 24.81 8.3 46.9 74 3.9 39.1
11:15 1010 29.83 840 24.81 8.1 46.6 74 3.7 38.7
11:20 1010 29.83 840 24.81 8.1 46.5 75 3.9 39
11:25 1010 29.83 840 24.81 7.8 46 75 3.6 38.4
11:30 1010 29.83 840 24.81 8.1 46.5 72 3.4 38.1
11:35 1010 29.83 839 24.78 8.7 47.7 70 3.7 38.6
11:40 1010 29.83 839 24.78 8.9 48 70 3.7 38.7
11:45 1010 29.83 839 24.78 8.7 47.7 70 3.5 38.3
11:50 1010 29.83 839 24.78 8.9 48 69 3.5 38.3
11:55 1010 29.83 839 24.78 8.6 47.5 70 3.4 38.2
12:00 1010 29.83 839 24.78 8.3 46.9 76 4.3 39.8
12:05 1010 29.83 839 24.78 7.7 45.9 77 3.9 39
12:10 1010 29.83 839 24.78 7.9 46.2 74 3.6 38.4
12:15 1010 29.83 839 24.78 8 46.4 70 2.8 37.1
12:20 1010 29.83 839 24.78 8.3 47 69 2.9 37.3
12:25 1010 29.83 839 24.78 8.6 47.5 69 3.3 37.9
12:30 1010 29.83 839 24.78 9.1 48.4 67 3.4 38.1
12:35 1010 29.83 839 24.78 9.6 49.3 65 3.5 38.2
12:40 1010 29.83 839 24.78 9.9 49.9 63 3.1 37.6
12:45 1010 29.83 839 24.78 10.5 50.9 59 3 37.3
12:50 1010 29.83 839 24.78 11 51.7 59 3.3 37.9
12:55 1010 29.83 839 24.78 12.1 53.8 55 3.4 38.2
13:00 1010 29.83 839 24.78 11.9 53.4 54 3.1 37.5
13:05 1010 29.83 839 24.78 11.5 52.6 56 3.1 37.6
13:10 1010 29.83 839 24.78 11.8 53.3 53 2.7 36.9
13:15 1010 29.83 839 24.78 11.8 53.3 53 2.7 36.9
13:20 1010 29.83 839 24.78 12.2 54 49 1.9 35.5
13:25 1010 29.83 839 24.78 13.3 55.9 46 1.8 35.3
13:30 1009 29.8 839 24.78 13.6 56.6 46 2.3 36.2
13:35 1009 29.8 839 24.78 14.6 58.2 43 2.3 36.1
13:40 1009 29.8 839 24.78 14.8 58.6 43 2.6 36.6
13:45 1009 29.8 839 24.78 14.2 57.6 42 1.4 34.5
13:50 1009 29.8 839 24.78 14.5 58 42 1.8 35.2
13:55 1009 29.8 839 24.78 14.8 58.7 41 1.9 35.4
14:00 1009 29.8 839 24.78 14.3 57.8 41 1.5 34.6
14:05 1009 29.8 839 24.78 14.4 57.9 42 1.9 35.4
14:10 1009 29.8 839 24.78 14.3 57.8 40 0.9 33.6
14:15 1009 29.8 839 24.78 13.9 57.1 42 1.4 34.6
14:20 1009 29.8 839 24.78 13.8 56.8 41 0.8 33.5
14:25 1009 29.8 839 24.78 14.4 58 41 1.6 34.9
14:30 1009 29.8 839 24.78 14.5 58.2 41 1.4 34.6
14:35 1009 29.8 839 24.78 14.8 58.6 39 1.2 34.2
14:40 1009 29.8 839 24.78 14.7 58.4 40 1.5 34.6
14:45 1009 29.8 839 24.78 14.8 58.6 40 1.4 34.5
14:50 1009 29.8 839 24.78 15.3 59.6 38 1.3 34.4
14:55 1009 29.8 839 24.78 14.5 58.2 41 1.5 34.8
15:00 1009 29.8 839 24.78 14.9 58.8 39 1.3 34.3
15:05 1009 29.8 839 24.78 15.4 59.8 39 1.5 34.6
15:10 1009 29.8 839 24.78 15.3 59.5 38 1.2 34.1
15:15 1009 29.8 839 24.78 15 59 40 1.8 35.2
15:20 1009 29.8 838 24.75 14.9 58.7 40 1.5 34.7
15:25 1009 29.8 838 24.75 15.4 59.7 39 1.7 35.1
15:30 1009 29.8 838 24.75 15.2 59.3 38 1.2 34.2
15:35 1009 29.8 838 24.75 15 58.9 42 2.2 36
15:40 1009 29.8 838 24.75 15.2 59.4 40 1.9 35.4
15:45 1009 29.8 838 24.75 15.2 59.4 40 1.9 35.4
15:50 1009 29.8 838 24.75 15.1 59.1 39 1.2 34.2
15:55 1009 29.8 838 24.75 15.4 59.8 37 1 33.8
16:00 1009 29.8 838 24.75 15.7 60.3 36 0.8 33.4
16:05 1009 29.8 838 24.75 15.8 60.4 38 1.4 34.5
16:10 1009 29.8 838 24.75 15.9 60.7 38 1.7 35
16:15 1009 29.8 838 24.75 16.1 61 38 1.8 35.2
16:20 1009 29.8 838 24.75 15.9 60.6 38 1.8 35.2
16:25 1009 29.8 838 24.75 15.7 60.3 37 1.3 34.4
16:30 1009 29.8 838 24.75 15.5 59.9 37 1 33.8
16:35 1009 29.8 838 24.75 15.5 59.8 38 1.3 34.3
16:40 1009 29.8 838 24.75 15.6 60.2 37 1 33.8
16:45 1009 29.8 838 24.75 15.1 59.1 40 1.5 34.8
16:50 1009 29.8 838 24.75 15 58.9 39 1.4 34.4
16:55 1009 29.8 838 24.75 14.9 58.9 39 1.2 34.1
17:00 1009 29.8 838 24.75 14.8 58.7 39 1 33.8
17:05 1009 29.8 838 24.75 14.1 57.3 41 1.2 34.2
17:10 1009 29.8 838 24.75 14.2 57.6 41 1.3 34.4
17:15 1009 29.8 838 24.75 14.4 58 42 1.8 35.3
17:20 1009 29.8 838 24.75 15.1 59.1 38 1 33.8
17:25 1009 29.8 838 24.75 16 60.7 35 0.6 33.1
17:30 1009 29.8 838 24.75 15.4 59.8 39 1.8 35.2
17:35 1009 29.8 838 24.75 15.1 59.2 37 0.8 33.4
17:40 1009 29.8 838 24.75 14.8 58.6 38 0.6 33
17:45 1009 29.8 838 24.75 14.6 58.2 40 1.2 34.2
17:50 1009 29.8 838 24.75 14.5 58 41 1.4 34.5
17:55 1009 29.8 838 24.75 14.4 57.9 41 1.5 34.6
18:00 1009 29.8 838 24.75 13.9 57.1 44 1.8 35.3
18:05 1009 29.8 838 24.75 13.3 56 43 1.2 34.2
18:10 1009 29.8 838 24.75 13.2 55.7 44 1.4 34.5
18:15 1009 29.8 838 24.75 12.9 55.3 44 1.1 34
18:20 1009 29.8 838 24.75 13.2 55.7 44 1.1 34.1
18:25 1009 29.8 838 24.75 13.4 56 46 2 35.6
18:30 1009 29.8 838 24.75 13.3 55.9 44 1.4 34.5
18:35 1009 29.8 838 24.75 13.1 55.6 45 1.4 34.5
18:40 1009 29.8 838 24.75 13.1 55.5 41 0.3 32.5
18:45 1009 29.8 838 24.75 13.2 55.7 37 -1 30.2
18:50 1009 29.8 838 24.75 13 55.3 38 -0.9 30.4
18:55 1009 29.8 838 24.75 13.1 55.6 39 -0.5 31.2
19:00 1009 29.8 838 24.75 13.3 55.9 39 -0.2 31.6
19:05 1009 29.8 838 24.75 13.1 55.7 40 0.1 32.1
19:10 1009 29.8 838 24.75 12.9 55.1 42 0.3 32.5
19:15 1009 29.8 838 24.75 13 55.4 43 0.8 33.4
19:20 1009 29.8 838 24.75 12.9 55.1 45 1.2 34.1
19:25 1009 29.8 838 24.75 12.7 54.8 45 1 33.8
19:30 1009 29.8 838 24.75 12.5 54.5 45 1.1 34
19:35 1009 29.8 839 24.78 12.4 54.3 46 1.2 34.1
19:40 1009 29.8 839 24.78 12.3 54.1 47 1.4 34.5
19:45 1010 29.83 839 24.78 12 53.6 47 1.2 34.2
19:50 1010 29.83 839 24.78 12 53.6 49 1.6 34.9
19:55 1010 29.83 839 24.78 11.9 53.4 50 1.8 35.2
20:00 1010 29.83 839 24.78 11.7 53 50 1.8 35.2
20:05 1010 29.83 839 24.78 11.6 52.8 51 1.9 35.5
20:10 1010 29.83 839 24.78 11.5 52.7 52 2 35.6
20:15 1010 29.83 839 24.78 11.8 53.2 50 1.7 35.1
20:20 1010 29.83 840 24.81 10.6 51.1 64 4.2 39.6
20:25 1010 29.83 840 24.81 9.1 48.4 68 3.6 38.5
20:30 1011 29.85 840 24.81 8.8 47.8 71 3.9 39
20:35 1011 29.85 840 24.81 8 46.5 75 3.9 38.9
20:40 1011 29.85 840 24.81 7.4 45.3 80 4.1 39.4
20:45 1011 29.85 840 24.81 7 44.6 81 4.1 39.3
20:50 1011 29.85 840 24.81 6.7 44.1 83 4 39.2
20:55 1011 29.85 840 24.81 6.5 43.7 82 3.7 38.6
21:00 1011 29.85 840 24.81 6.4 43.5 82 3.5 38.3
21:05 1011 29.85 840 24.81 6.1 43 83 3.4 38.1
21:10 1011 29.85 840 24.81 6 42.8 83 3.3 37.9
21:15 1011 29.85 840 24.81 6 42.8 82 3.3 37.9
21:20 1011 29.85 841 24.83 6.2 43.1 82 3.3 37.9
21:25 1011 29.85 841 24.83 6.3 43.3 81 3.3 37.9
21:30 1011 29.85 841 24.83 6.3 43.3 82 3.4 38.2
21:35 1012 29.88 841 24.83 6.2 43.2 82 3.4 38.1
21:40 1012 29.88 841 24.83 6.2 43.1 81 3.1 37.6
21:45 1012 29.88 841 24.83 6.2 43.1 81 3.1 37.6
21:50 1012 29.88 841 24.83 6.1 43 81 3.1 37.6
21:55 1012 29.88 841 24.83 6.1 43 82 3.2 37.8
22:00 1012 29.88 841 24.83 6 42.8 82 3.2 37.8
22:05 1012 29.88 841 24.83 5.9 42.6 82 3.2 37.7
22:10 1012 29.88 842 24.86 6 42.8 82 3.2 37.7
22:15 1012 29.88 842 24.86 5.9 42.6 82 3.1 37.6
22:20 1012 29.88 842 24.86 5.8 42.4 82 2.9 37.3
22:25 1012 29.88 842 24.86 5.7 42.3 83 3.1 37.6
22:30 1012 29.88 842 24.86 5.6 42.2 81 2.7 36.9
22:35 1013 29.91 842 24.86 5.7 42.3 81 2.8 37
22:40 1013 29.91 842 24.86 5.7 42.2 81 2.7 36.9
22:45 1013 29.91 842 24.86 5.7 42.2 82 2.9 37.2
22:50 1013 29.91 842 24.86 5.7 42.3 82 3 37.3
22:55 1013 29.91 842 24.86 5.8 42.4 83 3 37.5
23:00 1013 29.91 842 24.86 6 42.7 82 3 37.5
23:05 1013 29.91 842 24.86 6 42.8 82 3.2 37.7
23:10 1013 29.91 842 24.86 6 42.8 83 3.3 37.9
23:15 1013 29.91 842 24.86 6 42.7 83 3.3 38
23:20 1013 29.91 842 24.86 5.9 42.7 83 3.3 38
23:25 1013 29.91 842 24.86 5.8 42.5 85 3.5 38.2
23:30 1013 29.91 842 24.86 5.9 42.6 84 3.3 38
23:35 1013 29.91 842 24.86 5.8 42.5 84 3.3 38
23:40 1013 29.91 842 24.86 5.6 42.1 86 3.4 38.2
23:45 1013 29.91 842 24.86 5.5 42 85 3.2 37.8
23:50 1013 29.91 842 24.86 5.4 41.8 86 3.3 38
23:55 1013 29.91 842 24.86 5.4 41.7 87 3.3 38
24:00 1013 29.91 842 24.86 5.4 41.6 87 3.3 38